West Lebanon, Pennsylvania
Current Conditions -  °F | °C
As of 4:55 AM on Thursday 23 Oct 2014 (Local Time) from KIDI Reporting Station
Overcast Overcast  
Wind Chill: 43°   Ceiling: 1600
Heat Index: 46°   Visibility: 10mi
Dew Point: 41°   Wind: 7mph
Humidity: 81%   Direction: 320°NW
Pressure: 30.11"   Gusts: NA
Location:  40.6°N, 79.35°W
Report Text: KIDI 230855Z AUTO 32006KT 10SM OVC016 08/05 A3011 RMK A01
Loading
Personal Weather Stations






























Interactive Weather Map
Tropical Storm Tracking
New forecast layout! Learn more

10-Day Weather Forecast

Advertisements
Track Severe Weather on mobile